sensor_id;sensor_type;location;lat;lon;timestamp;temperature;humidity
67275;DHT22;55463;52.324;5.122;2023-12-20T00:01:18;6.24;99.90
67275;DHT22;55463;52.324;5.122;2023-12-20T00:03:43;6.25;99.98
67275;DHT22;55463;52.324;5.122;2023-12-20T00:06:09;6.22;99.99
67275;DHT22;55463;52.324;5.122;2023-12-20T00:08:34;6.27;99.79
67275;DHT22;55463;52.324;5.122;2023-12-20T00:11:00;6.25;99.99
67275;DHT22;55463;52.324;5.122;2023-12-20T00:13:25;6.24;99.99
67275;DHT22;55463;52.324;5.122;2023-12-20T00:15:50;6.24;99.99
67275;DHT22;55463;52.324;5.122;2023-12-20T00:18:16;6.27;99.76
67275;DHT22;55463;52.324;5.122;2023-12-20T00:20:41;6.22;99.95
67275;DHT22;55463;52.324;5.122;2023-12-20T00:23:07;6.22;99.99
67275;DHT22;55463;52.324;5.122;2023-12-20T00:25:33;6.25;99.89
67275;DHT22;55463;52.324;5.122;2023-12-20T00:28:00;6.25;99.89
67275;DHT22;55463;52.324;5.122;2023-12-20T00:30:25;6.25;99.92
67275;DHT22;55463;52.324;5.122;2023-12-20T00:32:50;6.25;99.91
67275;DHT22;55463;52.324;5.122;2023-12-20T00:35:16;6.25;99.87
67275;DHT22;55463;52.324;5.122;2023-12-20T00:37:45;6.25;99.94
67275;DHT22;55463;52.324;5.122;2023-12-20T00:40:10;6.28;99.68
67275;DHT22;55463;52.324;5.122;2023-12-20T00:42:36;6.27;99.80
67275;DHT22;55463;52.324;5.122;2023-12-20T00:45:02;6.24;99.81
67275;DHT22;55463;52.324;5.122;2023-12-20T00:47:30;6.22;99.74
67275;DHT22;55463;52.324;5.122;2023-12-20T00:49:55;6.20;99.79
67275;DHT22;55463;52.324;5.122;2023-12-20T00:52:20;6.16;99.68
67275;DHT22;55463;52.324;5.122;2023-12-20T00:54:48;6.13;99.76
67275;DHT22;55463;52.324;5.122;2023-12-20T00:57:14;6.11;99.80
67275;DHT22;55463;52.324;5.122;2023-12-20T00:59:39;6.11;99.96
67275;DHT22;55463;52.324;5.122;2023-12-20T01:02:05;6.16;99.99
67275;DHT22;55463;52.324;5.122;2023-12-20T01:04:30;6.20;99.99
67275;DHT22;55463;52.324;5.122;2023-12-20T01:06:55;6.20;99.99
67275;DHT22;55463;52.324;5.122;2023-12-20T01:09:21;6.25;99.99
67275;DHT22;55463;52.324;5.122;2023-12-20T01:11:51;6.28;99.99
67275;DHT22;55463;52.324;5.122;2023-12-20T01:14:16;6.32;99.99
67275;DHT22;55463;52.324;5.122;2023-12-20T01:16:42;6.35;99.99
67275;DHT22;55463;52.324;5.122;2023-12-20T01:19:07;6.34;99.99
67275;DHT22;55463;52.324;5.122;2023-12-20T01:21:33;6.34;99.99
67275;DHT22;55463;52.324;5.122;2023-12-20T01:23:58;6.41;99.87
67275;DHT22;55463;52.324;5.122;2023-12-20T01:26:23;6.35;99.81
67275;DHT22;55463;52.324;5.122;2023-12-20T01:28:49;6.34;99.87
67275;DHT22;55463;52.324;5.122;2023-12-20T01:31:14;6.34;99.72
67275;DHT22;55463;52.324;5.122;2023-12-20T01:33:40;6.34;99.70
67275;DHT22;55463;52.324;5.122;2023-12-20T01:36:05;6.34;99.64
67275;DHT22;55463;52.324;5.122;2023-12-20T01:38:31;6.39;99.61
67275;DHT22;55463;52.324;5.122;2023-12-20T01:40:57;6.39;99.52
67275;DHT22;55463;52.324;5.122;2023-12-20T01:43:23;6.37;99.66
67275;DHT22;55463;52.324;5.122;2023-12-20T01:45:48;6.38;99.70
67275;DHT22;55463;52.324;5.122;2023-12-20T01:48:14;6.39;99.84
67275;DHT22;55463;52.324;5.122;2023-12-20T01:50:41;6.44;99.85
67275;DHT22;55463;52.324;5.122;2023-12-20T01:53:08;6.45;99.86
67275;DHT22;55463;52.324;5.122;2023-12-20T01:55:36;6.49;99.94
67275;DHT22;55463;52.324;5.122;2023-12-20T01:58:04;6.53;99.98
67275;DHT22;55463;52.324;5.122;2023-12-20T02:00:30;6.53;99.86
67275;DHT22;55463;52.324;5.122;2023-12-20T02:02:57;6.56;99.67
67275;DHT22;55463;52.324;5.122;2023-12-20T02:05:26;6.56;99.64
67275;DHT22;55463;52.324;5.122;2023-12-20T02:07:53;6.56;99.81
67275;DHT22;55463;52.324;5.122;2023-12-20T02:10:18;6.52;99.59
67275;DHT22;55463;52.324;5.122;2023-12-20T02:12:44;6.50;99.71
67275;DHT22;55463;52.324;5.122;2023-12-20T02:15:10;6.53;99.48
67275;DHT22;55463;52.324;5.122;2023-12-20T02:17:36;6.56;99.48
67275;DHT22;55463;52.324;5.122;2023-12-20T02:20:01;6.55;99.60
67275;DHT22;55463;52.324;5.122;2023-12-20T02:22:27;6.61;99.43
67275;DHT22;55463;52.324;5.122;2023-12-20T02:24:53;6.58;99.57
67275;DHT22;55463;52.324;5.122;2023-12-20T02:27:19;6.58;99.40
67275;DHT22;55463;52.324;5.122;2023-12-20T02:29:46;6.58;99.56
67275;DHT22;55463;52.324;5.122;2023-12-20T02:32:12;6.56;99.60
67275;DHT22;55463;52.324;5.122;2023-12-20T02:34:38;6.58;99.65
67275;DHT22;55463;52.324;5.122;2023-12-20T02:37:03;6.58;99.65
67275;DHT22;55463;52.324;5.122;2023-12-20T02:39:30;6.64;99.52
67275;DHT22;55463;52.324;5.122;2023-12-20T02:41:55;6.66;99.41
67275;DHT22;55463;52.324;5.122;2023-12-20T02:44:20;6.65;99.52
67275;DHT22;55463;52.324;5.122;2023-12-20T02:46:46;6.69;99.39
67275;DHT22;55463;52.324;5.122;2023-12-20T02:49:12;6.72;99.58
67275;DHT22;55463;52.324;5.122;2023-12-20T02:51:37;6.71;99.40
67275;DHT22;55463;52.324;5.122;2023-12-20T02:54:05;6.73;99.35
67275;DHT22;55463;52.324;5.122;2023-12-20T02:56:32;6.68;99.12
67275;DHT22;55463;52.324;5.122;2023-12-20T02:58:57;6.73;99.20
67275;DHT22;55463;52.324;5.122;2023-12-20T03:01:23;6.76;99.18
67275;DHT22;55463;52.324;5.122;2023-12-20T03:03:48;6.73;99.14
67275;DHT22;55463;52.324;5.122;2023-12-20T03:06:18;6.77;98.94
67275;DHT22;55463;52.324;5.122;2023-12-20T03:08:44;6.73;98.92
67275;DHT22;55463;52.324;5.122;2023-12-20T03:11:09;6.77;98.89
67275;DHT22;55463;52.324;5.122;2023-12-20T03:13:35;6.79;99.13
67275;DHT22;55463;52.324;5.122;2023-12-20T03:16:00;6.77;98.88
67275;DHT22;55463;52.324;5.122;2023-12-20T03:18:25;6.85;98.66
67275;DHT22;55463;52.324;5.122;2023-12-20T03:20:53;6.85;98.99
67275;DHT22;55463;52.324;5.122;2023-12-20T03:23:18;6.87;98.84
67275;DHT22;55463;52.324;5.122;2023-12-20T03:25:44;6.85;98.74
67275;DHT22;55463;52.324;5.122;2023-12-20T03:28:09;6.87;98.38
67275;DHT22;55463;52.324;5.122;2023-12-20T03:30:35;6.86;98.63
67275;DHT22;55463;52.324;5.122;2023-12-20T03:33:00;6.86;98.54
67275;DHT22;55463;52.324;5.122;2023-12-20T03:35:25;6.83;98.47
67275;DHT22;55463;52.324;5.122;2023-12-20T03:37:51;6.80;98.60
67275;DHT22;55463;52.324;5.122;2023-12-20T03:40:17;6.80;98.60
67275;DHT22;55463;52.324;5.122;2023-12-20T03:42:42;6.79;98.72
67275;DHT22;55463;52.324;5.122;2023-12-20T03:45:08;6.73;98.90
67275;DHT22;55463;52.324;5.122;2023-12-20T03:47:34;6.73;99.00
67275;DHT22;55463;52.324;5.122;2023-12-20T03:49:59;6.73;98.98
67275;DHT22;55463;52.324;5.122;2023-12-20T03:52:24;6.75;99.07
67275;DHT22;55463;52.324;5.122;2023-12-20T03:54:50;6.77;99.03
67275;DHT22;55463;52.324;5.122;2023-12-20T03:57:15;6.77;99.02
67275;DHT22;55463;52.324;5.122;2023-12-20T03:59:40;6.80;98.82
67275;DHT22;55463;52.324;5.122;2023-12-20T04:02:06;6.77;99.06
67275;DHT22;55463;52.324;5.122;2023-12-20T04:04:31;6.79;99.18
67275;DHT22;55463;52.324;5.122;2023-12-20T04:06:57;6.83;98.96
67275;DHT22;55463;52.324;5.122;2023-12-20T04:09:22;6.85;99.10
67275;DHT22;55463;52.324;5.122;2023-12-20T04:11:48;6.86;99.03
67275;DHT22;55463;52.324;5.122;2023-12-20T04:14:13;6.90;98.85
67275;DHT22;55463;52.324;5.122;2023-12-20T04:16:39;6.87;98.98
67275;DHT22;55463;52.324;5.122;2023-12-20T04:19:05;6.94;98.79
67275;DHT22;55463;52.324;5.122;2023-12-20T04:21:30;6.92;98.60
67275;DHT22;55463;52.324;5.122;2023-12-20T04:23:56;6.90;98.57
67275;DHT22;55463;52.324;5.122;2023-12-20T04:26:21;6.92;98.56
67275;DHT22;55463;52.324;5.122;2023-12-20T04:28:47;6.94;98.51
67275;DHT22;55463;52.324;5.122;2023-12-20T04:31:12;6.94;98.38
67275;DHT22;55463;52.324;5.122;2023-12-20T04:33:37;6.94;98.65
67275;DHT22;55463;52.324;5.122;2023-12-20T04:36:03;6.93;98.77
67275;DHT22;55463;52.324;5.122;2023-12-20T04:38:29;6.94;98.72
67275;DHT22;55463;52.324;5.122;2023-12-20T04:40:55;6.94;98.96
67275;DHT22;55463;52.324;5.122;2023-12-20T04:43:20;6.96;98.62
67275;DHT22;55463;52.324;5.122;2023-12-20T04:45:46;6.99;98.64
67275;DHT22;55463;52.324;5.122;2023-12-20T04:48:12;6.96;98.73
67275;DHT22;55463;52.324;5.122;2023-12-20T04:50:37;7.01;98.62
67275;DHT22;55463;52.324;5.122;2023-12-20T04:53:03;6.99;98.74
67275;DHT22;55463;52.324;5.122;2023-12-20T04:55:28;7.10;98.03
67275;DHT22;55463;52.324;5.122;2023-12-20T04:57:54;7.07;98.47
67275;DHT22;55463;52.324;5.122;2023-12-20T05:00:20;7.10;98.57
67275;DHT22;55463;52.324;5.122;2023-12-20T05:02:45;7.11;98.24
67275;DHT22;55463;52.324;5.122;2023-12-20T05:05:11;7.13;98.30
67275;DHT22;55463;52.324;5.122;2023-12-20T05:07:36;7.15;98.45
67275;DHT22;55463;52.324;5.122;2023-12-20T05:10:02;7.18;98.10
67275;DHT22;55463;52.324;5.122;2023-12-20T05:12:30;7.17;98.38
67275;DHT22;55463;52.324;5.122;2023-12-20T05:14:55;7.14;98.11
67275;DHT22;55463;52.324;5.122;2023-12-20T05:17:20;7.18;98.44
67275;DHT22;55463;52.324;5.122;2023-12-20T05:19:46;7.21;98.55
67275;DHT22;55463;52.324;5.122;2023-12-20T05:22:11;7.22;98.21
67275;DHT22;55463;52.324;5.122;2023-12-20T05:24:37;7.27;98.32
67275;DHT22;55463;52.324;5.122;2023-12-20T05:27:02;7.25;98.41
67275;DHT22;55463;52.324;5.122;2023-12-20T05:29:28;7.22;98.57
67275;DHT22;55463;52.324;5.122;2023-12-20T05:31:53;7.31;98.34
67275;DHT22;55463;52.324;5.122;2023-12-20T05:34:22;7.28;98.17
67275;DHT22;55463;52.324;5.122;2023-12-20T05:36:47;7.30;98.29
67275;DHT22;55463;52.324;5.122;2023-12-20T05:39:13;7.32;98.35
67275;DHT22;55463;52.324;5.122;2023-12-20T05:41:38;7.28;98.38
67275;DHT22;55463;52.324;5.122;2023-12-20T05:44:04;7.32;98.20
67275;DHT22;55463;52.324;5.122;2023-12-20T05:46:29;7.32;98.20
67275;DHT22;55463;52.324;5.122;2023-12-20T05:48:55;7.34;98.31
67275;DHT22;55463;52.324;5.122;2023-12-20T05:51:21;7.35;98.32
67275;DHT22;55463;52.324;5.122;2023-12-20T05:53:46;7.39;98.04
67275;DHT22;55463;52.324;5.122;2023-12-20T05:56:11;7.42;98.09
67275;DHT22;55463;52.324;5.122;2023-12-20T05:58:38;7.41;98.05
67275;DHT22;55463;52.324;5.122;2023-12-20T06:01:04;7.42;97.96
67275;DHT22;55463;52.324;5.122;2023-12-20T06:03:30;7.45;98.32
67275;DHT22;55463;52.324;5.122;2023-12-20T06:05:55;7.47;97.87
67275;DHT22;55463;52.324;5.122;2023-12-20T06:08:21;7.49;97.78
67275;DHT22;55463;52.324;5.122;2023-12-20T06:10:46;7.49;98.01
67275;DHT22;55463;52.324;5.122;2023-12-20T06:13:11;7.54;97.64
67275;DHT22;55463;52.324;5.122;2023-12-20T06:15:38;7.52;98.14
67275;DHT22;55463;52.324;5.122;2023-12-20T06:18:05;7.52;98.03
67275;DHT22;55463;52.324;5.122;2023-12-20T06:20:34;7.51;97.66
67275;DHT22;55463;52.324;5.122;2023-12-20T06:22:59;7.52;97.93
67275;DHT22;55463;52.324;5.122;2023-12-20T06:25:25;7.52;97.88
67275;DHT22;55463;52.324;5.122;2023-12-20T06:27:50;7.52;98.00
67275;DHT22;55463;52.324;5.122;2023-12-20T06:30:16;7.56;97.83
67275;DHT22;55463;52.324;5.122;2023-12-20T06:32:42;7.56;97.79
67275;DHT22;55463;52.324;5.122;2023-12-20T06:35:08;7.61;97.46
67275;DHT22;55463;52.324;5.122;2023-12-20T06:37:34;7.62;97.53
67275;DHT22;55463;52.324;5.122;2023-12-20T06:40:03;7.65;97.58
67275;DHT22;55463;52.324;5.122;2023-12-20T06:42:28;7.67;97.41
67275;DHT22;55463;52.324;5.122;2023-12-20T06:44:54;7.70;97.49
67275;DHT22;55463;52.324;5.122;2023-12-20T06:47:19;7.70;97.98
67275;DHT22;55463;52.324;5.122;2023-12-20T06:49:44;7.69;97.84
67275;DHT22;55463;52.324;5.122;2023-12-20T06:52:10;7.67;97.89
67275;DHT22;55463;52.324;5.122;2023-12-20T06:54:35;7.70;97.98
67275;DHT22;55463;52.324;5.122;2023-12-20T06:57:01;7.69;97.98
67275;DHT22;55463;52.324;5.122;2023-12-20T06:59:28;7.69;97.99
67275;DHT22;55463;52.324;5.122;2023-12-20T07:01:57;7.67;97.83
67275;DHT22;55463;52.324;5.122;2023-12-20T07:04:22;7.69;97.76
67275;DHT22;55463;52.324;5.122;2023-12-20T07:06:48;7.67;97.96
67275;DHT22;55463;52.324;5.122;2023-12-20T07:09:17;7.70;97.48
67275;DHT22;55463;52.324;5.122;2023-12-20T07:11:42;7.72;97.82
67275;DHT22;55463;52.324;5.122;2023-12-20T07:14:10;7.70;97.81
67275;DHT22;55463;52.324;5.122;2023-12-20T07:16:40;7.76;97.57
67275;DHT22;55463;52.324;5.122;2023-12-20T07:19:09;7.72;97.76
67275;DHT22;55463;52.324;5.122;2023-12-20T07:21:34;7.72;97.70
67275;DHT22;55463;52.324;5.122;2023-12-20T07:24:00;7.72;97.45
67275;DHT22;55463;52.324;5.122;2023-12-20T07:26:25;7.75;97.78
67275;DHT22;55463;52.324;5.122;2023-12-20T07:28:51;7.75;97.91
67275;DHT22;55463;52.324;5.122;2023-12-20T07:31:16;7.75;98.08
67275;DHT22;55463;52.324;5.122;2023-12-20T07:33:45;7.73;97.95
67275;DHT22;55463;52.324;5.122;2023-12-20T07:36:12;7.73;98.35
67275;DHT22;55463;52.324;5.122;2023-12-20T07:38:37;7.72;98.29
67275;DHT22;55463;52.324;5.122;2023-12-20T07:41:02;7.79;97.94
67275;DHT22;55463;52.324;5.122;2023-12-20T07:43:28;7.80;97.74
67275;DHT22;55463;52.324;5.122;2023-12-20T07:45:53;7.82;98.00
67275;DHT22;55463;52.324;5.122;2023-12-20T07:48:19;7.83;98.04
67275;DHT22;55463;52.324;5.122;2023-12-20T07:50:44;7.86;97.97
67275;DHT22;55463;52.324;5.122;2023-12-20T07:53:10;7.86;98.04
67275;DHT22;55463;52.324;5.122;2023-12-20T07:55:35;7.86;97.80
67275;DHT22;55463;52.324;5.122;2023-12-20T07:58:01;7.86;97.96
67275;DHT22;55463;52.324;5.122;2023-12-20T08:00:27;7.83;98.06
67275;DHT22;55463;52.324;5.122;2023-12-20T08:02:53;7.84;98.13
67275;DHT22;55463;52.324;5.122;2023-12-20T08:05:18;7.89;97.70
67275;DHT22;55463;52.324;5.122;2023-12-20T08:07:44;7.91;97.70
67275;DHT22;55463;52.324;5.122;2023-12-20T08:10:09;7.91;97.67
67275;DHT22;55463;52.324;5.122;2023-12-20T08:12:35;8.00;97.18
67275;DHT22;55463;52.324;5.122;2023-12-20T08:15:01;7.97;97.72
67275;DHT22;55463;52.324;5.122;2023-12-20T08:17:27;7.98;97.62
67275;DHT22;55463;52.324;5.122;2023-12-20T08:19:52;7.98;98.06
67275;DHT22;55463;52.324;5.122;2023-12-20T08:22:17;8.00;98.00
67275;DHT22;55463;52.324;5.122;2023-12-20T08:24:43;8.03;97.85
67275;DHT22;55463;52.324;5.122;2023-12-20T08:27:08;8.07;97.59
67275;DHT22;55463;52.324;5.122;2023-12-20T08:29:35;8.07;97.77
67275;DHT22;55463;52.324;5.122;2023-12-20T08:32:00;8.05;97.98
67275;DHT22;55463;52.324;5.122;2023-12-20T08:34:26;8.03;97.78
67275;DHT22;55463;52.324;5.122;2023-12-20T08:36:51;8.10;97.56
67275;DHT22;55463;52.324;5.122;2023-12-20T08:39:17;8.14;97.32
67275;DHT22;55463;52.324;5.122;2023-12-20T08:41:43;8.12;97.81
67275;DHT22;55463;52.324;5.122;2023-12-20T08:44:09;8.17;97.76
67275;DHT22;55463;52.324;5.122;2023-12-20T08:46:35;8.15;97.85
67275;DHT22;55463;52.324;5.122;2023-12-20T08:49:01;8.14;98.04
67275;DHT22;55463;52.324;5.122;2023-12-20T08:51:26;8.11;97.93
67275;DHT22;55463;52.324;5.122;2023-12-20T08:53:52;8.17;97.66
67275;DHT22;55463;52.324;5.122;2023-12-20T08:56:18;8.20;97.71
67275;DHT22;55463;52.324;5.122;2023-12-20T08:58:45;8.21;97.32
67275;DHT22;55463;52.324;5.122;2023-12-20T09:01:11;8.22;97.35
67275;DHT22;55463;52.324;5.122;2023-12-20T09:03:37;8.24;97.51
67275;DHT22;55463;52.324;5.122;2023-12-20T09:06:03;8.24;97.55
67275;DHT22;55463;52.324;5.122;2023-12-20T09:08:28;8.27;97.55
67275;DHT22;55463;52.324;5.122;2023-12-20T09:10:56;8.27;97.24
67275;DHT22;55463;52.324;5.122;2023-12-20T09:13:22;8.25;97.56
67275;DHT22;55463;52.324;5.122;2023-12-20T09:15:52;8.20;97.43
67275;DHT22;55463;52.324;5.122;2023-12-20T09:18:26;8.18;97.11
67275;DHT22;55463;52.324;5.122;2023-12-20T09:20:52;8.17;97.23
67275;DHT22;55463;52.324;5.122;2023-12-20T09:23:17;8.20;97.20
67275;DHT22;55463;52.324;5.122;2023-12-20T09:25:43;8.14;97.40
67275;DHT22;55463;52.324;5.122;2023-12-20T09:28:09;8.15;97.45
67275;DHT22;55463;52.324;5.122;2023-12-20T09:30:35;8.18;97.48
67275;DHT22;55463;52.324;5.122;2023-12-20T09:33:03;8.17;97.39
67275;DHT22;55463;52.324;5.122;2023-12-20T09:35:28;8.22;97.53
67275;DHT22;55463;52.324;5.122;2023-12-20T09:37:53;8.24;97.57
67275;DHT22;55463;52.324;5.122;2023-12-20T09:40:19;8.21;97.71
67275;DHT22;55463;52.324;5.122;2023-12-20T09:42:57;8.24;97.68
67275;DHT22;55463;52.324;5.122;2023-12-20T09:45:23;8.24;97.85
67275;DHT22;55463;52.324;5.122;2023-12-20T09:47:52;8.29;97.20
67275;DHT22;55463;52.324;5.122;2023-12-20T09:50:19;8.32;97.15
67275;DHT22;55463;52.324;5.122;2023-12-20T09:52:46;8.35;97.38
67275;DHT22;55463;52.324;5.122;2023-12-20T09:55:12;8.39;97.28
67275;DHT22;55463;52.324;5.122;2023-12-20T09:57:39;8.39;97.23
67275;DHT22;55463;52.324;5.122;2023-12-20T10:00:05;8.42;97.27
67275;DHT22;55463;52.324;5.122;2023-12-20T10:02:32;8.42;97.53
67275;DHT22;55463;52.324;5.122;2023-12-20T10:05:00;8.41;97.51
67275;DHT22;55463;52.324;5.122;2023-12-20T10:07:25;8.38;97.71
67275;DHT22;55463;52.324;5.122;2023-12-20T10:09:54;8.41;97.59
67275;DHT22;55463;52.324;5.122;2023-12-20T10:12:20;8.39;97.45
67275;DHT22;55463;52.324;5.122;2023-12-20T10:14:46;8.44;97.09
67275;DHT22;55463;52.324;5.122;2023-12-20T10:17:11;8.50;97.38
67275;DHT22;55463;52.324;5.122;2023-12-20T10:19:37;8.57;97.19
67275;DHT22;55463;52.324;5.122;2023-12-20T10:22:04;8.62;96.91
67275;DHT22;55463;52.324;5.122;2023-12-20T10:24:32;8.62;97.37
67275;DHT22;55463;52.324;5.122;2023-12-20T10:27:02;8.63;97.19
67275;DHT22;55463;52.324;5.122;2023-12-20T10:29:32;8.60;97.10
67275;DHT22;55463;52.324;5.122;2023-12-20T10:31:57;8.57;96.76
67275;DHT22;55463;52.324;5.122;2023-12-20T10:34:23;8.59;97.00
67275;DHT22;55463;52.324;5.122;2023-12-20T10:36:49;8.60;96.62
67275;DHT22;55463;52.324;5.122;2023-12-20T10:39:15;8.63;96.11
67275;DHT22;55463;52.324;5.122;2023-12-20T10:41:41;8.76;95.35
67275;DHT22;55463;52.324;5.122;2023-12-20T10:44:09;8.86;96.14
67275;DHT22;55463;52.324;5.122;2023-12-20T10:46:36;8.87;95.73
67275;DHT22;55463;52.324;5.122;2023-12-20T10:49:05;8.88;95.67
67275;DHT22;55463;52.324;5.122;2023-12-20T10:51:31;8.93;94.89
67275;DHT22;55463;52.324;5.122;2023-12-20T10:53:56;8.90;94.75
67275;DHT22;55463;52.324;5.122;2023-12-20T10:56:22;8.90;94.94
67275;DHT22;55463;52.324;5.122;2023-12-20T10:58:51;8.99;94.93
67275;DHT22;55463;52.324;5.122;2023-12-20T11:01:18;9.04;95.14
67275;DHT22;55463;52.324;5.122;2023-12-20T11:03:51;9.12;95.72
67275;DHT22;55463;52.324;5.122;2023-12-20T11:06:27;9.20;94.93
67275;DHT22;55463;52.324;5.122;2023-12-20T11:09:06;9.20;94.65
67275;DHT22;55463;52.324;5.122;2023-12-20T11:11:42;9.21;93.93
67275;DHT22;55463;52.324;5.122;2023-12-20T11:14:23;9.18;94.14
67275;DHT22;55463;52.324;5.122;2023-12-20T11:16:50;9.15;94.33
67275;DHT22;55463;52.324;5.122;2023-12-20T11:19:16;9.15;95.11
67275;DHT22;55463;52.324;5.122;2023-12-20T11:21:42;9.31;95.10
67275;DHT22;55463;52.324;5.122;2023-12-20T11:24:08;9.34;94.89
67275;DHT22;55463;52.324;5.122;2023-12-20T11:26:34;9.35;95.03
67275;DHT22;55463;52.324;5.122;2023-12-20T11:29:31;9.34;94.05
67275;DHT22;55463;52.324;5.122;2023-12-20T11:32:02;9.35;94.54
67275;DHT22;55463;52.324;5.122;2023-12-20T11:34:31;9.36;94.72
67275;DHT22;55463;52.324;5.122;2023-12-20T11:36:58;9.42;95.38
67275;DHT22;55463;52.324;5.122;2023-12-20T11:39:25;9.38;94.57
67275;DHT22;55463;52.324;5.122;2023-12-20T11:41:51;9.40;95.02
67275;DHT22;55463;52.324;5.122;2023-12-20T11:44:17;9.38;95.37
67275;DHT22;55463;52.324;5.122;2023-12-20T11:46:44;9.32;94.17
67275;DHT22;55463;52.324;5.122;2023-12-20T11:49:09;9.32;95.27
67275;DHT22;55463;52.324;5.122;2023-12-20T11:51:35;9.31;95.16
67275;DHT22;55463;52.324;5.122;2023-12-20T11:54:00;9.31;95.46
67275;DHT22;55463;52.324;5.122;2023-12-20T11:56:25;9.32;95.08
67275;DHT22;55463;52.324;5.122;2023-12-20T11:58:51;9.31;94.97
67275;DHT22;55463;52.324;5.122;2023-12-20T12:01:16;9.35;95.20
67275;DHT22;55463;52.324;5.122;2023-12-20T12:03:42;9.29;94.75
67275;DHT22;55463;52.324;5.122;2023-12-20T12:06:08;9.28;95.29
67275;DHT22;55463;52.324;5.122;2023-12-20T12:08:33;9.27;95.03
67275;DHT22;55463;52.324;5.122;2023-12-20T12:11:00;9.31;95.36
67275;DHT22;55463;52.324;5.122;2023-12-20T12:13:26;9.36;95.97
67275;DHT22;55463;52.324;5.122;2023-12-20T12:15:53;9.36;95.75
67275;DHT22;55463;52.324;5.122;2023-12-20T12:18:19;9.35;95.34
67275;DHT22;55463;52.324;5.122;2023-12-20T12:20:44;9.32;95.25
67275;DHT22;55463;52.324;5.122;2023-12-20T12:23:10;9.32;95.55
67275;DHT22;55463;52.324;5.122;2023-12-20T12:25:35;9.29;95.70
67275;DHT22;55463;52.324;5.122;2023-12-20T12:28:05;9.32;95.63
67275;DHT22;55463;52.324;5.122;2023-12-20T12:34:08;9.29;95.70
67275;DHT22;55463;52.324;5.122;2023-12-20T12:36:34;9.28;95.74
67275;DHT22;55463;52.324;5.122;2023-12-20T12:39:24;9.31;95.70
67275;DHT22;55463;52.324;5.122;2023-12-20T12:41:50;9.29;95.79
67275;DHT22;55463;52.324;5.122;2023-12-20T12:44:34;9.29;96.12
67275;DHT22;55463;52.324;5.122;2023-12-20T12:47:21;9.29;96.03
67275;DHT22;55463;52.324;5.122;2023-12-20T12:53:16;9.28;95.21
67275;DHT22;55463;52.324;5.122;2023-12-20T12:55:56;9.28;95.03
67275;DHT22;55463;52.324;5.122;2023-12-20T12:58:24;9.29;95.01
67275;DHT22;55463;52.324;5.122;2023-12-20T13:01:15;9.29;95.74
67275;DHT22;55463;52.324;5.122;2023-12-20T13:06:54;9.28;95.59
67275;DHT22;55463;52.324;5.122;2023-12-20T13:09:39;9.24;95.67
67275;DHT22;55463;52.324;5.122;2023-12-20T13:12:43;9.18;95.94
67275;DHT22;55463;52.324;5.122;2023-12-20T13:15:08;9.20;95.57
67275;DHT22;55463;52.324;5.122;2023-12-20T13:17:34;9.18;94.94
67275;DHT22;55463;52.324;5.122;2023-12-20T13:20:00;9.17;95.67
67275;DHT22;55463;52.324;5.122;2023-12-20T13:22:28;9.15;95.21
67275;DHT22;55463;52.324;5.122;2023-12-20T13:25:05;9.14;95.24
67275;DHT22;55463;52.324;5.122;2023-12-20T13:27:53;9.12;95.51
67275;DHT22;55463;52.324;5.122;2023-12-20T13:30:33;9.10;95.21
67275;DHT22;55463;52.324;5.122;2023-12-20T13:33:05;9.11;95.26
67275;DHT22;55463;52.324;5.122;2023-12-20T13:35:39;9.12;95.37
67275;DHT22;55463;52.324;5.122;2023-12-20T13:38:27;9.14;95.51
67275;DHT22;55463;52.324;5.122;2023-12-20T13:41:07;9.12;95.24
67275;DHT22;55463;52.324;5.122;2023-12-20T13:43:40;9.15;95.18
67275;DHT22;55463;52.324;5.122;2023-12-20T13:46:09;9.12;95.16
67275;DHT22;55463;52.324;5.122;2023-12-20T13:52:10;9.15;95.81
67275;DHT22;55463;52.324;5.122;2023-12-20T13:54:51;9.17;95.97
67275;DHT22;55463;52.324;5.122;2023-12-20T13:57:17;9.15;95.62
67275;DHT22;55463;52.324;5.122;2023-12-20T13:59:42;9.14;95.33
67275;DHT22;55463;52.324;5.122;2023-12-20T14:02:08;9.17;96.03
67275;DHT22;55463;52.324;5.122;2023-12-20T14:04:33;9.15;95.88
67275;DHT22;55463;52.324;5.122;2023-12-20T14:06:59;9.11;95.89
67275;DHT22;55463;52.324;5.122;2023-12-20T14:09:24;9.12;96.03
67275;DHT22;55463;52.324;5.122;2023-12-20T14:11:50;9.14;95.82
67275;DHT22;55463;52.324;5.122;2023-12-20T14:14:18;9.14;95.86
67275;DHT22;55463;52.324;5.122;2023-12-20T14:16:53;9.11;96.06
67275;DHT22;55463;52.324;5.122;2023-12-20T14:19:18;9.14;96.51
67275;DHT22;55463;52.324;5.122;2023-12-20T14:21:44;9.14;95.64
67275;DHT22;55463;52.324;5.122;2023-12-20T14:24:13;9.17;96.42
67275;DHT22;55463;52.324;5.122;2023-12-20T14:26:40;9.17;96.45
67275;DHT22;55463;52.324;5.122;2023-12-20T14:29:06;9.18;96.36
67275;DHT22;55463;52.324;5.122;2023-12-20T14:31:32;9.12;96.67
67275;DHT22;55463;52.324;5.122;2023-12-20T14:33:58;9.20;96.80
67275;DHT22;55463;52.324;5.122;2023-12-20T14:36:24;9.18;96.49
67275;DHT22;55463;52.324;5.122;2023-12-20T14:38:50;9.15;96.69
67275;DHT22;55463;52.324;5.122;2023-12-20T14:41:16;9.15;96.69
67275;DHT22;55463;52.324;5.122;2023-12-20T14:43:43;9.11;96.89
67275;DHT22;55463;52.324;5.122;2023-12-20T14:46:08;9.10;96.80
67275;DHT22;55463;52.324;5.122;2023-12-20T14:48:33;9.11;96.88
67275;DHT22;55463;52.324;5.122;2023-12-20T14:50:59;9.08;97.12
67275;DHT22;55463;52.324;5.122;2023-12-20T14:53:26;9.11;96.68
67275;DHT22;55463;52.324;5.122;2023-12-20T14:55:51;9.10;97.02
67275;DHT22;55463;52.324;5.122;2023-12-20T14:58:17;9.10;96.85
67275;DHT22;55463;52.324;5.122;2023-12-20T15:00:42;9.10;96.81
67275;DHT22;55463;52.324;5.122;2023-12-20T15:03:10;9.12;96.79
67275;DHT22;55463;52.324;5.122;2023-12-20T15:05:35;9.12;96.96
67275;DHT22;55463;52.324;5.122;2023-12-20T15:08:01;9.12;96.94
67275;DHT22;55463;52.324;5.122;2023-12-20T15:10:27;9.10;97.22
67275;DHT22;55463;52.324;5.122;2023-12-20T15:12:52;9.08;97.14
67275;DHT22;55463;52.324;5.122;2023-12-20T15:15:18;9.07;97.38
67275;DHT22;55463;52.324;5.122;2023-12-20T15:17:45;9.07;97.22
67275;DHT22;55463;52.324;5.122;2023-12-20T15:20:11;9.01;97.37
67275;DHT22;55463;52.324;5.122;2023-12-20T15:22:36;9.05;97.29
67275;DHT22;55463;52.324;5.122;2023-12-20T15:25:03;9.05;97.50
67275;DHT22;55463;52.324;5.122;2023-12-20T15:27:30;9.04;97.33
67275;DHT22;55463;52.324;5.122;2023-12-20T15:29:56;9.07;97.47
67275;DHT22;55463;52.324;5.122;2023-12-20T15:32:21;9.10;97.72
67275;DHT22;55463;52.324;5.122;2023-12-20T15:34:47;9.04;97.74
67275;DHT22;55463;52.324;5.122;2023-12-20T15:37:13;9.04;97.90
67275;DHT22;55463;52.324;5.122;2023-12-20T15:39:39;9.03;98.05
67275;DHT22;55463;52.324;5.122;2023-12-20T15:42:06;9.01;98.39
67275;DHT22;55463;52.324;5.122;2023-12-20T15:44:32;8.99;98.49
67275;DHT22;55463;52.324;5.122;2023-12-20T15:46:57;9.00;98.50
67275;DHT22;55463;52.324;5.122;2023-12-20T15:49:22;8.94;98.66
67275;DHT22;55463;52.324;5.122;2023-12-20T15:51:48;8.96;98.88
67275;DHT22;55463;52.324;5.122;2023-12-20T15:54:13;8.97;98.65
67275;DHT22;55463;52.324;5.122;2023-12-20T15:56:39;8.96;98.86